sensor_id;sensor_type;location;lat;lon;timestamp;pressure;altitude;pressure_sealevel;temperature;humidity
42247;BME280;27913;42.722;23.268;2024-01-15T00:02:17;94462.28;;;-3.27;99.75
42247;BME280;27913;42.722;23.268;2024-01-15T00:04:43;94462.06;;;-3.24;100.00
42247;BME280;27913;42.722;23.268;2024-01-15T00:07:09;94483.78;;;-3.28;100.00
42247;BME280;27913;42.722;23.268;2024-01-15T00:09:35;94446.63;;;-3.24;100.00
42247;BME280;27913;42.722;23.268;2024-01-15T00:12:01;94482.88;;;-3.27;100.00
42247;BME280;27913;42.722;23.268;2024-01-15T00:14:27;94472.78;;;-3.30;100.00
42247;BME280;27913;42.722;23.268;2024-01-15T00:16:54;94431.28;;;-3.48;100.00
42247;BME280;27913;42.722;23.268;2024-01-15T00:19:22;94455.97;;;-3.23;100.00
42247;BME280;27913;42.722;23.268;2024-01-15T00:21:49;94451.66;;;-3.22;100.00
42247;BME280;27913;42.722;23.268;2024-01-15T00:24:15;94457.25;;;-3.17;100.00
42247;BME280;27913;42.722;23.268;2024-01-15T00:26:40;94456.31;;;-3.16;100.00
42247;BME280;27913;42.722;23.268;2024-01-15T00:29:09;94010.13;;;-5.94;100.00
42247;BME280;27913;42.722;23.268;2024-01-15T00:31:35;94444.03;;;-3.35;100.00
42247;BME280;27913;42.722;23.268;2024-01-15T00:34:01;94465.44;;;-3.12;100.00
42247;BME280;27913;42.722;23.268;2024-01-15T00:36:26;94475.75;;;-3.12;100.00
42247;BME280;27913;42.722;23.268;2024-01-15T00:38:52;94464.97;;;-3.17;99.88
42247;BME280;27913;42.722;23.268;2024-01-15T00:41:18;94460.19;;;-3.22;100.00
42247;BME280;27913;42.722;23.268;2024-01-15T00:43:47;94456.22;;;-3.26;100.00
42247;BME280;27913;42.722;23.268;2024-01-15T00:46:14;94235.06;;;-4.77;100.00
42247;BME280;27913;42.722;23.268;2024-01-15T00:48:40;94452.94;;;-3.28;100.00
42247;BME280;27913;42.722;23.268;2024-01-15T00:51:06;94476.06;;;-3.28;100.00
42247;BME280;27913;42.722;23.268;2024-01-15T00:53:32;94256.22;;;-4.62;100.00
42247;BME280;27913;42.722;23.268;2024-01-15T00:55:57;94459.00;;;-3.29;100.00
42247;BME280;27913;42.722;23.268;2024-01-15T00:58:23;94400.16;;;-3.68;100.00
42247;BME280;27913;42.722;23.268;2024-01-15T01:03:24;94132.19;;;-5.32;99.51
42247;BME280;27913;42.722;23.268;2024-01-15T01:05:49;94451.19;;;-3.28;100.00
42247;BME280;27913;42.722;23.268;2024-01-15T01:08:15;94445.69;;;-3.23;99.97
42247;BME280;27913;42.722;23.268;2024-01-15T01:10:41;94001.13;;;-6.00;98.72
42247;BME280;27913;42.722;23.268;2024-01-15T01:13:08;94238.06;;;-4.47;98.78
42247;BME280;27913;42.722;23.268;2024-01-15T01:15:34;94423.44;;;-3.35;98.56
42247;BME280;27913;42.722;23.268;2024-01-15T01:18:00;94452.13;;;-3.29;98.82
42247;BME280;27913;42.722;23.268;2024-01-15T01:20:25;94447.78;;;-3.28;98.33
42247;BME280;27913;42.722;23.268;2024-01-15T01:22:51;94438.41;;;-3.41;98.84
42247;BME280;27913;42.722;23.268;2024-01-15T01:25:17;94444.50;;;-3.30;99.56
42247;BME280;27913;42.722;23.268;2024-01-15T01:27:42;94247.41;;;-4.34;99.58
42247;BME280;27913;42.722;23.268;2024-01-15T01:30:08;94432.09;;;-3.25;99.36
42247;BME280;27913;42.722;23.268;2024-01-15T01:32:34;94425.34;;;-3.26;99.19
42247;BME280;27913;42.722;23.268;2024-01-15T01:35:00;94384.66;;;-3.55;99.18
42247;BME280;27913;42.722;23.268;2024-01-15T01:37:26;94036.09;;;-5.87;98.24
42247;BME280;27913;42.722;23.268;2024-01-15T01:39:51;94359.34;;;-3.84;98.88
42247;BME280;27913;42.722;23.268;2024-01-15T01:42:17;94089.72;;;-5.48;98.99
42247;BME280;27913;42.722;23.268;2024-01-15T01:44:43;94272.41;;;-4.25;99.61
42247;BME280;27913;42.722;23.268;2024-01-15T01:47:08;94361.38;;;-3.77;100.00
42247;BME280;27913;42.722;23.268;2024-01-15T01:49:34;94414.56;;;-3.31;100.00
42247;BME280;27913;42.722;23.268;2024-01-15T01:52:05;94381.34;;;-3.46;100.00
42247;BME280;27913;42.722;23.268;2024-01-15T01:54:32;94238.44;;;-4.29;100.00
42247;BME280;27913;42.722;23.268;2024-01-15T01:56:58;94409.53;;;-3.21;100.00
42247;BME280;27913;42.722;23.268;2024-01-15T01:59:25;94316.38;;;-3.82;100.00
42247;BME280;27913;42.722;23.268;2024-01-15T02:01:56;94243.59;;;-4.17;100.00
42247;BME280;27913;42.722;23.268;2024-01-15T02:04:23;94396.56;;;-3.20;100.00
42247;BME280;27913;42.722;23.268;2024-01-15T02:06:50;93945.38;;;-6.08;99.71
42247;BME280;27913;42.722;23.268;2024-01-15T02:09:16;94397.50;;;-3.21;100.00
42247;BME280;27913;42.722;23.268;2024-01-15T02:11:42;94338.94;;;-3.63;99.65
42247;BME280;27913;42.722;23.268;2024-01-15T02:14:08;94313.91;;;-3.72;99.29
42247;BME280;27913;42.722;23.268;2024-01-15T02:16:34;94049.81;;;-5.28;98.41
42247;BME280;27913;42.722;23.268;2024-01-15T02:19:00;94379.38;;;-3.19;99.11
42247;BME280;27913;42.722;23.268;2024-01-15T02:21:25;94371.78;;;-3.21;98.79
42247;BME280;27913;42.722;23.268;2024-01-15T02:23:54;93951.72;;;-5.77;97.64
42247;BME280;27913;42.722;23.268;2024-01-15T02:26:20;94343.50;;;-3.32;98.05
42247;BME280;27913;42.722;23.268;2024-01-15T02:28:46;94124.63;;;-4.64;97.39
42247;BME280;27913;42.722;23.268;2024-01-15T02:31:12;93943.19;;;-5.89;97.04
42247;BME280;27913;42.722;23.268;2024-01-15T02:33:37;94345.25;;;-3.33;98.04
42247;BME280;27913;42.722;23.268;2024-01-15T02:36:03;94292.22;;;-3.57;98.82
42247;BME280;27913;42.722;23.268;2024-01-15T02:38:29;94007.84;;;-5.38;98.52
42247;BME280;27913;42.722;23.268;2024-01-15T02:40:54;94253.19;;;-3.96;97.59
42247;BME280;27913;42.722;23.268;2024-01-15T02:43:20;94363.47;;;-3.47;98.29
42247;BME280;27913;42.722;23.268;2024-01-15T02:45:46;94185.66;;;-4.56;98.43
42247;BME280;27913;42.722;23.268;2024-01-15T02:48:12;94112.53;;;-5.09;98.59
42247;BME280;27913;42.722;23.268;2024-01-15T02:50:38;93970.72;;;-6.16;98.81
42247;BME280;27913;42.722;23.268;2024-01-15T02:53:03;94157.38;;;-4.90;99.41
42247;BME280;27913;42.722;23.268;2024-01-15T02:55:29;94359.50;;;-3.74;99.93
42247;BME280;27913;42.722;23.268;2024-01-15T02:57:55;94353.50;;;-3.86;99.88
42247;BME280;27913;42.722;23.268;2024-01-15T03:00:20;94358.28;;;-4.05;99.81
42247;BME280;27913;42.722;23.268;2024-01-15T03:02:47;94216.50;;;-4.80;100.00
42247;BME280;27913;42.722;23.268;2024-01-15T03:05:13;94341.25;;;-3.94;100.00
42247;BME280;27913;42.722;23.268;2024-01-15T03:07:38;94349.19;;;-3.86;100.00
42247;BME280;27913;42.722;23.268;2024-01-15T03:10:07;94334.38;;;-3.82;100.00
42247;BME280;27913;42.722;23.268;2024-01-15T03:12:33;94337.16;;;-3.74;100.00
42247;BME280;27913;42.722;23.268;2024-01-15T03:14:59;94046.72;;;-5.45;100.00
42247;BME280;27913;42.722;23.268;2024-01-15T03:17:25;94177.84;;;-4.54;100.00
42247;BME280;27913;42.722;23.268;2024-01-15T03:19:50;94331.78;;;-3.82;100.00
42247;BME280;27913;42.722;23.268;2024-01-15T03:22:16;94158.25;;;-5.03;99.79
42247;BME280;27913;42.722;23.268;2024-01-15T03:24:42;94312.31;;;-4.32;100.00
42247;BME280;27913;42.722;23.268;2024-01-15T03:27:08;94069.63;;;-5.90;100.00
42247;BME280;27913;42.722;23.268;2024-01-15T03:29:34;94294.41;;;-4.57;100.00
42247;BME280;27913;42.722;23.268;2024-01-15T03:31:59;93915.16;;;-7.00;100.00
42247;BME280;27913;42.722;23.268;2024-01-15T03:34:25;94322.88;;;-4.49;100.00
42247;BME280;27913;42.722;23.268;2024-01-15T03:36:50;94042.41;;;-6.16;100.00
42247;BME280;27913;42.722;23.268;2024-01-15T03:39:16;94023.28;;;-6.23;100.00
42247;BME280;27913;42.722;23.268;2024-01-15T03:41:42;94232.03;;;-4.70;100.00
42247;BME280;27913;42.722;23.268;2024-01-15T03:44:08;94319.03;;;-4.07;100.00
42247;BME280;27913;42.722;23.268;2024-01-15T03:46:33;94026.78;;;-5.88;100.00
42247;BME280;27913;42.722;23.268;2024-01-15T03:48:59;94181.38;;;-4.91;100.00
42247;BME280;27913;42.722;23.268;2024-01-15T03:51:24;93930.00;;;-6.68;100.00
42247;BME280;27913;42.722;23.268;2024-01-15T03:53:50;94317.00;;;-4.26;100.00
42247;BME280;27913;42.722;23.268;2024-01-15T03:56:16;94164.16;;;-5.14;100.00
42247;BME280;27913;42.722;23.268;2024-01-15T03:58:41;94314.00;;;-4.08;100.00
42247;BME280;27913;42.722;23.268;2024-01-15T04:01:10;94304.75;;;-4.11;100.00
42247;BME280;27913;42.722;23.268;2024-01-15T04:03:36;94315.63;;;-4.19;100.00
42247;BME280;27913;42.722;23.268;2024-01-15T04:06:03;94309.97;;;-4.36;100.00
42247;BME280;27913;42.722;23.268;2024-01-15T04:08:29;94310.75;;;-4.46;100.00
42247;BME280;27913;42.722;23.268;2024-01-15T04:10:54;94228.63;;;-4.82;100.00
42247;BME280;27913;42.722;23.268;2024-01-15T04:13:20;93965.19;;;-6.34;100.00
42247;BME280;27913;42.722;23.268;2024-01-15T04:15:48;94116.69;;;-5.31;100.00
42247;BME280;27913;42.722;23.268;2024-01-15T04:18:15;94305.59;;;-4.22;100.00
42247;BME280;27913;42.722;23.268;2024-01-15T04:20:41;94307.91;;;-4.19;100.00
42247;BME280;27913;42.722;23.268;2024-01-15T04:23:07;94162.94;;;-4.97;100.00
42247;BME280;27913;42.722;23.268;2024-01-15T04:25:33;94217.94;;;-4.65;100.00
42247;BME280;27913;42.722;23.268;2024-01-15T04:27:58;94295.44;;;-4.23;100.00
42247;BME280;27913;42.722;23.268;2024-01-15T04:30:24;94128.34;;;-5.27;100.00
42247;BME280;27913;42.722;23.268;2024-01-15T04:32:50;94212.59;;;-4.62;100.00
42247;BME280;27913;42.722;23.268;2024-01-15T04:35:18;94059.88;;;-5.49;100.00
42247;BME280;27913;42.722;23.268;2024-01-15T04:37:44;94235.13;;;-4.42;100.00
42247;BME280;27913;42.722;23.268;2024-01-15T04:40:10;94156.56;;;-4.79;100.00
42247;BME280;27913;42.722;23.268;2024-01-15T04:42:35;93881.03;;;-6.50;100.00
42247;BME280;27913;42.722;23.268;2024-01-15T04:45:01;94031.91;;;-5.52;100.00
42247;BME280;27913;42.722;23.268;2024-01-15T04:47:27;94291.03;;;-3.87;100.00
42247;BME280;27913;42.722;23.268;2024-01-15T04:49:52;94051.28;;;-5.37;100.00
42247;BME280;27913;42.722;23.268;2024-01-15T04:52:18;94114.66;;;-4.91;100.00
42247;BME280;27913;42.722;23.268;2024-01-15T04:54:43;93876.59;;;-6.48;100.00
42247;BME280;27913;42.722;23.268;2024-01-15T04:57:09;93976.56;;;-5.66;100.00
42247;BME280;27913;42.722;23.268;2024-01-15T04:59:35;94196.75;;;-4.44;100.00
42247;BME280;27913;42.722;23.268;2024-01-15T05:02:00;94156.31;;;-4.88;100.00
42247;BME280;27913;42.722;23.268;2024-01-15T05:04:26;93939.38;;;-6.31;100.00
42247;BME280;27913;42.722;23.268;2024-01-15T05:06:53;94274.72;;;-4.33;100.00
42247;BME280;27913;42.722;23.268;2024-01-15T05:09:19;94271.09;;;-4.42;100.00
42247;BME280;27913;42.722;23.268;2024-01-15T05:11:45;94278.06;;;-4.56;100.00
42247;BME280;27913;42.722;23.268;2024-01-15T05:14:10;94277.44;;;-4.71;100.00
42247;BME280;27913;42.722;23.268;2024-01-15T05:16:38;94281.97;;;-4.75;100.00
42247;BME280;27913;42.722;23.268;2024-01-15T05:19:04;93898.41;;;-7.05;100.00
42247;BME280;27913;42.722;23.268;2024-01-15T05:21:29;94278.59;;;-4.64;100.00
42247;BME280;27913;42.722;23.268;2024-01-15T05:23:55;93973.06;;;-6.37;100.00
42247;BME280;27913;42.722;23.268;2024-01-15T05:26:21;94192.19;;;-4.99;100.00
42247;BME280;27913;42.722;23.268;2024-01-15T05:28:47;94282.28;;;-4.43;100.00
42247;BME280;27913;42.722;23.268;2024-01-15T05:31:12;94146.66;;;-5.20;100.00
42247;BME280;27913;42.722;23.268;2024-01-15T05:33:38;93936.81;;;-6.31;100.00
42247;BME280;27913;42.722;23.268;2024-01-15T05:36:03;94072.16;;;-5.41;100.00
42247;BME280;27913;42.722;23.268;2024-01-15T05:38:29;94268.44;;;-4.18;100.00
42247;BME280;27913;42.722;23.268;2024-01-15T05:40:55;94237.72;;;-4.42;100.00
42247;BME280;27913;42.722;23.268;2024-01-15T05:43:20;94255.00;;;-4.33;100.00
42247;BME280;27913;42.722;23.268;2024-01-15T05:45:46;94002.03;;;-5.76;100.00
42247;BME280;27913;42.722;23.268;2024-01-15T05:48:12;93845.03;;;-6.60;100.00
42247;BME280;27913;42.722;23.268;2024-01-15T05:50:38;93997.78;;;-5.53;100.00
42247;BME280;27913;42.722;23.268;2024-01-15T05:53:04;94228.44;;;-3.97;100.00
42247;BME280;27913;42.722;23.268;2024-01-15T05:55:30;93918.06;;;-5.96;100.00
42247;BME280;27913;42.722;23.268;2024-01-15T05:57:55;94143.88;;;-4.58;100.00
42247;BME280;27913;42.722;23.268;2024-01-15T06:00:21;94111.91;;;-4.77;100.00
42247;BME280;27913;42.722;23.268;2024-01-15T06:02:46;94251.22;;;-3.81;100.00
42247;BME280;27913;42.722;23.268;2024-01-15T06:05:12;94252.81;;;-3.92;100.00
42247;BME280;27913;42.722;23.268;2024-01-15T06:07:38;94172.34;;;-4.50;100.00
42247;BME280;27913;42.722;23.268;2024-01-15T06:10:03;94248.38;;;-4.13;100.00
42247;BME280;27913;42.722;23.268;2024-01-15T06:12:32;94247.19;;;-4.20;100.00
42247;BME280;27913;42.722;23.268;2024-01-15T06:14:59;94255.84;;;-4.21;100.00
42247;BME280;27913;42.722;23.268;2024-01-15T06:17:24;94161.25;;;-4.62;100.00
42247;BME280;27913;42.722;23.268;2024-01-15T06:19:56;94151.59;;;-4.46;100.00
42247;BME280;27913;42.722;23.268;2024-01-15T06:22:25;94225.16;;;-3.77;100.00
42247;BME280;27913;42.722;23.268;2024-01-15T06:24:50;94141.56;;;-4.15;100.00
42247;BME280;27913;42.722;23.268;2024-01-15T06:27:18;94055.22;;;-4.62;100.00
42247;BME280;27913;42.722;23.268;2024-01-15T06:29:45;94244.38;;;-3.36;100.00
42247;BME280;27913;42.722;23.268;2024-01-15T06:32:14;94207.97;;;-3.65;100.00
42247;BME280;27913;42.722;23.268;2024-01-15T06:34:40;94237.00;;;-3.30;100.00
42247;BME280;27913;42.722;23.268;2024-01-15T06:37:06;94252.06;;;-3.25;100.00
42247;BME280;27913;42.722;23.268;2024-01-15T06:39:32;93857.19;;;-5.58;100.00
42247;BME280;27913;42.722;23.268;2024-01-15T06:41:57;94228.25;;;-3.06;100.00
42247;BME280;27913;42.722;23.268;2024-01-15T06:44:23;93998.50;;;-4.36;100.00
42247;BME280;27913;42.722;23.268;2024-01-15T06:46:48;94022.72;;;-4.17;100.00
42247;BME280;27913;42.722;23.268;2024-01-15T06:49:14;94156.50;;;-3.42;100.00
42247;BME280;27913;42.722;23.268;2024-01-15T06:51:40;94229.19;;;-2.95;100.00
42247;BME280;27913;42.722;23.268;2024-01-15T06:54:05;94231.50;;;-2.92;100.00
42247;BME280;27913;42.722;23.268;2024-01-15T06:56:31;94224.50;;;-3.01;100.00
42247;BME280;27913;42.722;23.268;2024-01-15T06:58:57;93900.38;;;-4.95;100.00
42247;BME280;27913;42.722;23.268;2024-01-15T07:01:23;93932.09;;;-4.85;100.00
42247;BME280;27913;42.722;23.268;2024-01-15T07:03:49;94096.91;;;-3.80;100.00
42247;BME280;27913;42.722;23.268;2024-01-15T07:06:14;94252.50;;;-2.75;100.00
42247;BME280;27913;42.722;23.268;2024-01-15T07:08:40;94239.63;;;-2.75;100.00
42247;BME280;27913;42.722;23.268;2024-01-15T07:11:07;94249.88;;;-2.64;100.00
42247;BME280;27913;42.722;23.268;2024-01-15T07:13:33;94236.31;;;-2.45;100.00
42247;BME280;27913;42.722;23.268;2024-01-15T07:15:58;94082.94;;;-3.33;100.00
42247;BME280;27913;42.722;23.268;2024-01-15T07:18:24;94187.34;;;-2.76;100.00
42247;BME280;27913;42.722;23.268;2024-01-15T07:20:50;94119.47;;;-2.96;100.00
42247;BME280;27913;42.722;23.268;2024-01-15T07:23:16;94173.22;;;-2.60;100.00
42247;BME280;27913;42.722;23.268;2024-01-15T07:25:43;94116.72;;;-2.83;99.92
42247;BME280;27913;42.722;23.268;2024-01-15T07:28:09;94223.47;;;-2.13;99.35
42247;BME280;27913;42.722;23.268;2024-01-15T07:30:37;94165.97;;;-2.45;98.85
42247;BME280;27913;42.722;23.268;2024-01-15T07:33:04;93895.81;;;-4.15;97.99
42247;BME280;27913;42.722;23.268;2024-01-15T07:35:30;93926.47;;;-4.02;98.28
42247;BME280;27913;42.722;23.268;2024-01-15T07:37:56;94157.44;;;-2.67;99.18
42247;BME280;27913;42.722;23.268;2024-01-15T07:40:21;94134.03;;;-2.85;99.91
42247;BME280;27913;42.722;23.268;2024-01-15T07:42:47;94234.88;;;-2.37;100.00
42247;BME280;27913;42.722;23.268;2024-01-15T07:45:12;94153.41;;;-3.03;100.00
42247;BME280;27913;42.722;23.268;2024-01-15T07:47:38;94172.94;;;-3.00;100.00
42247;BME280;27913;42.722;23.268;2024-01-15T07:50:04;94025.88;;;-3.81;100.00
42247;BME280;27913;42.722;23.268;2024-01-15T07:52:30;94165.47;;;-3.03;100.00
42247;BME280;27913;42.722;23.268;2024-01-15T07:54:56;94136.47;;;-3.05;100.00
42247;BME280;27913;42.722;23.268;2024-01-15T07:57:24;94216.25;;;-2.20;100.00
42247;BME280;27913;42.722;23.268;2024-01-15T07:59:50;93810.53;;;-4.51;100.00
42247;BME280;27913;42.722;23.268;2024-01-15T08:02:16;94223.88;;;-1.87;100.00
42247;BME280;27913;42.722;23.268;2024-01-15T08:04:42;94220.41;;;-1.76;100.00
42247;BME280;27913;42.722;23.268;2024-01-15T08:07:08;94217.91;;;-1.77;100.00
42247;BME280;27913;42.722;23.268;2024-01-15T08:09:34;94198.72;;;-1.95;99.61
42247;BME280;27913;42.722;23.268;2024-01-15T08:12:00;94209.53;;;-1.79;97.83
42247;BME280;27913;42.722;23.268;2024-01-15T08:14:25;93893.38;;;-3.73;96.69
42247;BME280;27913;42.722;23.268;2024-01-15T08:16:51;93862.09;;;-3.79;96.71
42247;BME280;27913;42.722;23.268;2024-01-15T08:19:17;94190.84;;;-1.62;97.11
42247;BME280;27913;42.722;23.268;2024-01-15T08:21:42;94248.88;;;-1.26;95.95
42247;BME280;27913;42.722;23.268;2024-01-15T08:24:08;94151.84;;;-1.78;95.36
42247;BME280;27913;42.722;23.268;2024-01-15T08:26:34;93876.28;;;-3.53;95.33
42247;BME280;27913;42.722;23.268;2024-01-15T08:29:00;94120.09;;;-1.79;95.43
42247;BME280;27913;42.722;23.268;2024-01-15T08:31:25;94152.59;;;-1.37;95.55
42247;BME280;27913;42.722;23.268;2024-01-15T08:33:51;94236.44;;;-0.71;94.56
42247;BME280;27913;42.722;23.268;2024-01-15T08:36:17;94147.47;;;-1.17;93.71
42247;BME280;27913;42.722;23.268;2024-01-15T08:38:43;94138.22;;;-1.00;93.54
42247;BME280;27913;42.722;23.268;2024-01-15T08:41:08;94238.22;;;-0.42;93.51
42247;BME280;27913;42.722;23.268;2024-01-15T08:43:34;93881.72;;;-2.54;92.97
42247;BME280;27913;42.722;23.268;2024-01-15T08:46:00;94155.47;;;-0.70;92.96
42247;BME280;27913;42.722;23.268;2024-01-15T08:48:26;93945.75;;;-2.00;90.77
42247;BME280;27913;42.722;23.268;2024-01-15T08:50:55;93975.72;;;-1.89;91.16
42247;BME280;27913;42.722;23.268;2024-01-15T08:53:22;93843.38;;;-2.57;90.93
42247;BME280;27913;42.722;23.268;2024-01-15T08:55:48;94200.78;;;-0.28;91.26
42247;BME280;27913;42.722;23.268;2024-01-15T08:58:13;94196.13;;;-0.15;91.51
42247;BME280;27913;42.722;23.268;2024-01-15T09:00:39;93951.16;;;-1.53;91.38
42247;BME280;27913;42.722;23.268;2024-01-15T09:03:05;94214.56;;;0.10;90.96
42247;BME280;27913;42.722;23.268;2024-01-15T09:05:31;93886.44;;;-1.70;90.61
42247;BME280;27913;42.722;23.268;2024-01-15T09:07:56;94176.72;;;0.09;91.02
42247;BME280;27913;42.722;23.268;2024-01-15T09:10:22;93812.00;;;-1.93;90.68
42247;BME280;27913;42.722;23.268;2024-01-15T09:12:48;94041.59;;;-0.49;91.36
42247;BME280;27913;42.722;23.268;2024-01-15T09:15:14;94169.63;;;0.40;91.01
42247;BME280;27913;42.722;23.268;2024-01-15T09:17:40;94150.91;;;0.28;90.87
42247;BME280;27913;42.722;23.268;2024-01-15T09:20:06;94158.75;;;0.36;90.59
42247;BME280;27913;42.722;23.268;2024-01-15T09:22:32;94144.34;;;0.33;89.13
42247;BME280;27913;42.722;23.268;2024-01-15T09:24:58;94060.94;;;-0.25;90.19
42247;BME280;27913;42.722;23.268;2024-01-15T09:27:24;94076.88;;;-0.30;90.64
42247;BME280;27913;42.722;23.268;2024-01-15T09:29:51;94104.53;;;-0.12;91.78
42247;BME280;27913;42.722;23.268;2024-01-15T09:32:17;94120.34;;;0.13;92.27
42247;BME280;27913;42.722;23.268;2024-01-15T09:34:43;94112.06;;;0.09;92.34
42247;BME280;27913;42.722;23.268;2024-01-15T09:37:09;93764.41;;;-2.09;92.87
42247;BME280;27913;42.722;23.268;2024-01-15T09:39:35;94115.13;;;0.23;92.86
42247;BME280;27913;42.722;23.268;2024-01-15T09:42:00;93991.34;;;-0.65;92.89
42247;BME280;27913;42.722;23.268;2024-01-15T09:44:28;93762.88;;;-1.91;92.61
42247;BME280;27913;42.722;23.268;2024-01-15T09:46:55;93995.34;;;-0.42;92.36
42247;BME280;27913;42.722;23.268;2024-01-15T09:49:21;94078.25;;;0.21;91.89
42247;BME280;27913;42.722;23.268;2024-01-15T09:51:47;93806.50;;;-1.32;91.37
42247;BME280;27913;42.722;23.268;2024-01-15T09:54:13;93965.72;;;-0.48;91.83
42247;BME280;27913;42.722;23.268;2024-01-15T09:56:42;93954.25;;;-0.35;91.11
42247;BME280;27913;42.722;23.268;2024-01-15T09:59:12;93850.69;;;-1.17;90.95
42247;BME280;27913;42.722;23.268;2024-01-15T10:01:40;93762.81;;;-1.72;90.59
42247;BME280;27913;42.722;23.268;2024-01-15T10:04:06;94011.59;;;-0.04;91.46
42247;BME280;27913;42.722;23.268;2024-01-15T10:06:32;93916.78;;;-0.50;91.34
42247;BME280;27913;42.722;23.268;2024-01-15T10:08:58;93866.06;;;-0.69;90.77
42247;BME280;27913;42.722;23.268;2024-01-15T10:11:24;93915.09;;;-0.22;89.98
42247;BME280;27913;42.722;23.268;2024-01-15T10:13:50;93882.31;;;-0.40;89.61
42247;BME280;27913;42.722;23.268;2024-01-15T10:16:19;94036.28;;;0.64;89.81
42247;BME280;27913;42.722;23.268;2024-01-15T10:18:44;94043.34;;;0.80;89.81
42247;BME280;27913;42.722;23.268;2024-01-15T10:21:10;93989.25;;;0.68;89.20
42247;BME280;27913;42.722;23.268;2024-01-15T10:23:36;94006.94;;;1.00;88.27
42247;BME280;27913;42.722;23.268;2024-01-15T10:26:02;93886.13;;;0.29;87.88
42247;BME280;27913;42.722;23.268;2024-01-15T10:28:29;93701.16;;;-0.82;86.55
42247;BME280;27913;42.722;23.268;2024-01-15T10:30:57;94016.84;;;1.39;85.47
42247;BME280;27913;42.722;23.268;2024-01-15T10:33:24;94026.66;;;1.54;83.89
42247;BME280;27913;42.722;23.268;2024-01-15T10:35:57;93881.19;;;0.70;82.50
42247;BME280;27913;42.722;23.268;2024-01-15T10:38:24;93707.00;;;-0.35;83.10
42247;BME280;27913;42.722;23.268;2024-01-15T10:40:57;93795.75;;;0.27;84.22
42247;BME280;27913;42.722;23.268;2024-01-15T10:43:23;93964.31;;;1.20;84.67
42247;BME280;27913;42.722;23.268;2024-01-15T10:45:50;93873.22;;;0.64;84.62
42247;BME280;27913;42.722;23.268;2024-01-15T10:48:17;93934.44;;;1.00;84.38
42247;BME280;27913;42.722;23.268;2024-01-15T10:50:44;94000.91;;;1.52;83.43
42247;BME280;27913;42.722;23.268;2024-01-15T10:53:15;93719.31;;;-0.02;82.81
42247;BME280;27913;42.722;23.268;2024-01-15T10:55:41;93983.28;;;1.73;83.03
42247;BME280;27913;42.722;23.268;2024-01-15T10:58:09;93828.56;;;0.62;81.67
42247;BME280;27913;42.722;23.268;2024-01-15T11:00:35;93934.63;;;1.50;81.53
42247;BME280;27913;42.722;23.268;2024-01-15T11:03:03;93867.03;;;1.26;78.80
42247;BME280;27913;42.722;23.268;2024-01-15T11:05:37;93894.31;;;1.55;79.21
42247;BME280;27913;42.722;23.268;2024-01-15T11:08:06;93794.94;;;1.13;76.31
42247;BME280;27913;42.722;23.268;2024-01-15T11:10:46;93800.19;;;1.30;76.76
42247;BME280;27913;42.722;23.268;2024-01-15T11:13:15;93836.19;;;1.66;76.46
42247;BME280;27913;42.722;23.268;2024-01-15T11:15:57;93949.38;;;2.59;75.53
42247;BME280;27913;42.722;23.268;2024-01-15T11:18:23;93693.47;;;1.01;75.65
42247;BME280;27913;42.722;23.268;2024-01-15T11:23:47;93779.16;;;1.66;75.22
42247;BME280;27913;42.722;23.268;2024-01-15T11:28:59;93952.75;;;2.93;75.41
42247;BME280;27913;42.722;23.268;2024-01-15T11:34:07;93650.88;;;1.37;74.03
42247;BME280;27913;42.722;23.268;2024-01-15T11:42:03;93946.94;;;3.31;72.03
42247;BME280;27913;42.722;23.268;2024-01-15T11:44:30;93686.81;;;1.74;71.90
42247;BME280;27913;42.722;23.268;2024-01-15T11:47:00;93824.06;;;2.74;72.34
42247;BME280;27913;42.722;23.268;2024-01-15T11:52:19;93805.69;;;2.84;70.55
42247;BME280;27913;42.722;23.268;2024-01-15T11:54:56;93845.63;;;3.23;70.73
42247;BME280;27913;42.722;23.268;2024-01-15T11:57:41;93607.38;;;1.81;70.74
42247;BME280;27913;42.722;23.268;2024-01-15T12:00:09;93582.66;;;1.70;70.32
42247;BME280;27913;42.722;23.268;2024-01-15T12:02:35;93780.97;;;2.96;70.33
42247;BME280;27913;42.722;23.268;2024-01-15T12:05:01;93927.84;;;3.88;70.84
42247;BME280;27913;42.722;23.268;2024-01-15T12:07:27;93820.00;;;3.20;70.14
42247;BME280;27913;42.722;23.268;2024-01-15T12:09:53;93915.47;;;3.90;70.19
42247;BME280;27913;42.722;23.268;2024-01-15T12:12:57;93552.69;;;1.59;69.91
42247;BME280;27913;42.722;23.268;2024-01-15T12:15:25;93789.31;;;3.15;69.75
42247;BME280;27913;42.722;23.268;2024-01-15T12:17:51;93891.31;;;3.81;70.22
42247;BME280;27913;42.722;23.268;2024-01-15T12:20:17;93632.56;;;2.12;70.48
42247;BME280;27913;42.722;23.268;2024-01-15T12:22:44;93892.97;;;3.73;70.97
42247;BME280;27913;42.722;23.268;2024-01-15T12:25:10;93772.88;;;2.91;71.57
42247;BME280;27913;42.722;23.268;2024-01-15T12:27:36;93549.28;;;1.59;70.45
42247;BME280;27913;42.722;23.268;2024-01-15T12:30:02;93740.41;;;2.87;70.71
42247;BME280;27913;42.722;23.268;2024-01-15T12:32:29;93564.75;;;1.84;71.04
42247;BME280;27913;42.722;23.268;2024-01-15T12:34:55;93597.50;;;2.16;70.88
42247;BME280;27913;42.722;23.268;2024-01-15T12:37:21;93875.28;;;3.92;71.47
42247;BME280;27913;42.722;23.268;2024-01-15T12:39:47;93868.75;;;3.96;71.53
42247;BME280;27913;42.722;23.268;2024-01-15T12:42:16;93551.34;;;2.12;71.11
42247;BME280;27913;42.722;23.268;2024-01-15T12:44:44;93767.09;;;3.36;71.27
42247;BME280;27913;42.722;23.268;2024-01-15T12:47:10;93558.22;;;1.96;71.15
42247;BME280;27913;42.722;23.268;2024-01-15T12:49:37;93856.28;;;3.92;69.53
42247;BME280;27913;42.722;23.268;2024-01-15T12:52:03;93650.94;;;2.66;69.53
42247;BME280;27913;42.722;23.268;2024-01-15T12:54:29;93611.06;;;2.35;70.24
42247;BME280;27913;42.722;23.268;2024-01-15T12:56:54;93853.31;;;3.95;70.04
42247;BME280;27913;42.722;23.268;2024-01-15T12:59:20;93853.16;;;3.96;70.52
42247;BME280;27913;42.722;23.268;2024-01-15T13:01:46;93851.50;;;3.95;71.11
42247;BME280;27913;42.722;23.268;2024-01-15T13:04:21;93787.31;;;3.49;71.97